Time;durP1;ratioP1;P1;durP2;ratioP2;P2;SDS_P1;SDS_P2;PMS_P1;PMS_P2;Temp;Humidity;BMP_temperature;BMP_pressure;BME280_temperature;BME280_humidity;BME280_pressure;Samples;Min_cycle;Max_cycle;Signal;HPM_P1;HPM_P2
2024/01/18 00:00:18;;;;;;;24.05;18.10;;;;;;;-1.35;100.00;99380.56;5052708;28;20025;-79
2024/01/18 00:02:43;;;;;;;24.30;18.92;;;;;;;-1.34;100.00;99367.84;5052405;28;20052;-78
2024/01/18 00:05:09;;;;;;;26.98;19.33;;;;;;;-1.55;100.00;99351.75;5113507;23;20053;-78
2024/01/18 00:07:34;;;;;;;24.15;18.95;;;;;;;-1.43;100.00;99372.41;5032569;28;20116;-79
2024/01/18 00:09:59;;;;;;;26.13;18.02;;;;;;;-1.45;100.00;99373.31;5032499;28;20083;-80
2024/01/18 00:12:25;;;;;;;26.75;19.25;;;;;;;-1.61;100.00;99341.84;5032380;28;20108;-77
2024/01/18 00:14:50;;;;;;;24.90;19.02;;;;;;;-1.39;100.00;99387.41;5032668;28;20026;-78
2024/01/18 00:17:16;;;;;;;24.25;18.67;;;;;;;-1.40;100.00;99392.56;5032427;28;20096;-80
2024/01/18 00:19:42;;;;;;;25.30;19.25;;;;;;;-1.55;100.00;99378.78;5032365;28;20041;-80
2024/01/18 00:22:07;;;;;;;26.85;18.35;;;;;;;-1.43;100.00;99408.69;5032542;28;20381;-81
2024/01/18 00:24:32;;;;;;;24.88;17.88;;;;;;;-1.48;100.00;99403.78;5032515;28;20156;-78
2024/01/18 00:26:58;;;;;;;26.67;18.40;;;;;;;-1.66;100.00;99365.69;5032368;28;20048;-80
2024/01/18 00:29:23;;;;;;;25.92;20.00;;;;;;;-1.41;100.00;99409.44;5032331;28;20088;-77
2024/01/18 00:31:48;;;;;;;24.10;19.65;;;;;;;-1.41;100.00;99413.69;5032473;28;20397;-80
2024/01/18 00:34:13;;;;;;;27.02;19.33;;;;;;;-1.45;100.00;99408.75;5032548;28;20029;-79
2024/01/18 00:36:39;;;;;;;25.17;19.30;;;;;;;-1.47;100.00;99412.22;5032422;28;20029;-78
2024/01/18 00:39:10;;;;;;;28.55;19.77;;;;;;;-1.49;100.00;99414.78;5032723;28;20029;-78
2024/01/18 00:41:38;;;;;;;28.17;20.23;;;;;;;-1.67;100.00;99387.63;5032231;28;20512;-78
2024/01/18 00:44:04;;;;;;;24.98;18.98;;;;;;;-1.58;100.00;99404.16;5032367;28;20033;-77
2024/01/18 00:46:29;;;;;;;23.63;19.63;;;;;;;-1.84;100.00;99380.63;5032342;28;20034;-78
2024/01/18 00:48:54;;;;;;;25.85;19.23;;;;;;;-1.58;100.00;99421.88;5032206;28;20072;-76
2024/01/18 00:51:19;;;;;;;25.45;20.00;;;;;;;-1.60;100.00;99421.13;5032172;28;20087;-78
2024/01/18 00:53:45;;;;;;;24.92;19.30;;;;;;;-1.62;100.00;99415.28;5032215;28;20080;-78
2024/01/18 00:56:11;;;;;;;27.20;19.60;;;;;;;-1.65;100.00;99421.31;5032075;28;20064;-78
2024/01/18 00:58:42;;;;;;;24.73;20.10;;;;;;;-1.74;100.00;99409.78;5032198;28;20017;-77
2024/01/18 01:01:07;;;;;;;26.10;19.67;;;;;;;-1.69;100.00;99424.81;5033499;28;20060;-78
2024/01/18 01:03:32;;;;;;;27.88;20.02;;;;;;;-1.81;100.00;99412.59;5035861;28;20096;-79
2024/01/18 01:06:00;;;;;;;29.48;21.02;;;;;;;-1.70;100.00;99433.28;5035640;28;20045;-77
2024/01/18 01:08:26;;;;;;;28.05;20.45;;;;;;;-1.71;100.00;99438.41;5017824;28;20495;-78
2024/01/18 01:10:52;;;;;;;26.58;20.48;;;;;;;-1.85;100.00;99416.13;5036001;28;20029;-77
2024/01/18 01:13:17;;;;;;;26.20;19.63;;;;;;;-1.93;100.00;99421.44;5035840;28;20396;-77
2024/01/18 01:15:42;;;;;;;25.98;20.75;;;;;;;-1.80;100.00;99447.13;5034692;28;20481;-78
2024/01/18 01:18:10;;;;;;;27.83;20.52;;;;;;;-2.06;100.00;99417.69;5035481;28;20104;-78
2024/01/18 01:20:35;;;;;;;25.10;20.30;;;;;;;-1.93;100.00;99443.38;5017263;28;20033;-77
2024/01/18 01:23:00;;;;;;;27.27;20.45;;;;;;;-1.92;100.00;99448.38;5033999;28;20063;-77
2024/01/18 01:25:26;;;;;;;26.40;20.13;;;;;;;-2.11;100.00;99433.00;5035395;28;20033;-77
2024/01/18 01:27:51;;;;;;;28.35;21.35;;;;;;;-2.05;100.00;99453.03;5035536;28;20064;-78
2024/01/18 01:30:16;;;;;;;28.10;20.33;;;;;;;-2.09;100.00;99448.13;5035216;28;20025;-77
2024/01/18 01:35:13;;;;;;;25.45;20.20;;;;;;;-2.20;100.00;99437.53;5033207;28;20050;-77
2024/01/18 01:37:39;;;;;;;26.65;20.65;;;;;;;-2.05;100.00;99454.75;5034922;28;20029;-77
2024/01/18 01:40:05;;;;;;;29.65;20.83;;;;;;;-2.12;100.00;99453.28;5034844;28;20107;-79
2024/01/18 01:42:31;;;;;;;27.50;21.10;;;;;;;-2.20;100.00;99448.47;5035167;28;20423;-77
2024/01/18 01:47:31;;;;;;;28.52;21.17;;;;;;;-2.11;100.00;99472.63;4629753;26;20065;-77
2024/01/18 01:49:57;;;;;;;24.33;20.02;;;;;;;-2.13;100.00;99475.22;5014801;28;20026;-76
2024/01/18 01:52:24;;;;;;;24.75;20.08;;;;;;;-2.16;100.00;99479.56;5014852;28;20030;-78
2024/01/18 01:54:49;;;;;;;25.88;20.55;;;;;;;-2.27;100.00;99463.88;5015117;28;20026;-77
2024/01/18 01:57:17;;;;;;;26.90;20.38;;;;;;;-2.31;100.00;99469.06;5014924;28;20446;-77
2024/01/18 01:59:43;;;;;;;25.45;19.88;;;;;;;-2.19;100.00;99477.13;5015015;28;20272;-77
2024/01/18 02:02:10;;;;;;;25.95;20.40;;;;;;;-2.19;100.00;99480.47;5014801;28;20473;-78
2024/01/18 02:04:36;;;;;;;26.75;20.58;;;;;;;-2.29;100.00;99466.47;5014373;28;20034;-77
2024/01/18 02:07:02;;;;;;;27.85;21.13;;;;;;;-2.27;100.00;99464.72;5014790;28;20378;-78
2024/01/18 02:09:28;;;;;;;28.40;21.35;;;;;;;-2.21;100.00;99484.75;5014851;28;20029;-77
2024/01/18 02:11:54;;;;;;;26.42;20.23;;;;;;;-2.40;100.00;99446.59;5012610;28;20073;-77
2024/01/18 02:14:19;;;;;;;27.55;21.02;;;;;;;-2.17;100.00;99480.41;5014710;28;20049;-77
2024/01/18 02:16:44;;;;;;;28.95;21.85;;;;;;;-2.17;100.00;99485.47;5014583;28;20040;-79
2024/01/18 02:19:10;;;;;;;28.05;22.08;;;;;;;-2.20;100.00;99486.41;5014233;28;20465;-78
2024/01/18 02:21:36;;;;;;;28.20;20.58;;;;;;;-2.34;100.00;99466.63;5014486;28;20072;-77
2024/01/18 02:24:16;;;;;;;27.27;20.73;;;;;;;-2.26;100.00;99478.19;5014448;28;20025;-76
2024/01/18 02:26:42;;;;;;;29.08;21.77;;;;;;;-2.32;100.00;99469.94;5014424;28;20374;-77
2024/01/18 02:29:07;;;;;;;30.20;22.23;;;;;;;-2.34;100.00;99460.75;5014334;28;20036;-80
2024/01/18 02:31:32;;;;;;;29.80;21.83;;;;;;;-2.30;100.00;99467.34;5014136;28;20037;-80
2024/01/18 02:33:58;;;;;;;29.92;22.30;;;;;;;-2.29;100.00;99463.94;5013918;28;20079;-79
2024/01/18 02:36:24;;;;;;;28.08;19.83;;;;;;;-2.22;100.00;99478.06;5014494;28;20026;-80
2024/01/18 02:38:50;;;;;;;26.90;20.65;;;;;;;-2.34;100.00;99460.75;5014386;28;20058;-80
2024/01/18 02:41:15;;;;;;;27.23;20.67;;;;;;;-2.20;100.00;99480.53;5351642;23;20042;-80
2024/01/18 02:43:41;;;;;;;28.45;21.15;;;;;;;-2.39;100.00;99463.41;5014212;28;20030;-80
2024/01/18 02:46:06;;;;;;;29.48;20.77;;;;;;;-2.17;100.00;99488.00;5013965;28;20075;-80
2024/01/18 02:48:31;;;;;;;27.25;21.55;;;;;;;-2.23;100.00;99478.94;5013728;28;20030;-79
2024/01/18 02:50:57;;;;;;;28.67;21.48;;;;;;;-2.24;100.00;99476.47;5013629;28;20084;-79
2024/01/18 02:53:22;;;;;;;28.92;21.58;;;;;;;-2.10;100.00;99485.22;5013898;28;20029;-79
2024/01/18 02:55:49;;;;;;;26.67;20.80;;;;;;;-2.07;100.00;99495.22;5013821;28;20120;-77
2024/01/18 02:58:14;;;;;;;30.17;22.40;;;;;;;-2.08;100.00;99501.19;5013927;28;20041;-76
2024/01/18 03:00:40;;;;;;;28.15;21.10;;;;;;;-2.10;100.00;99497.88;4996227;28;20030;-80
2024/01/18 03:03:05;;;;;;;28.73;19.98;;;;;;;-2.17;100.00;99481.25;5013789;28;20021;-78
2024/01/18 03:05:31;;;;;;;24.90;19.83;;;;;;;-2.22;100.00;99477.22;5013384;28;20041;-79
2024/01/18 03:07:57;;;;;;;26.58;18.67;;;;;;;-2.32;100.00;99459.81;5013585;28;20462;-80
2024/01/18 03:10:22;;;;;;;27.13;20.45;;;;;;;-2.14;100.00;99485.41;5013791;28;20041;-78
2024/01/18 03:12:47;;;;;;;24.25;19.33;;;;;;;-2.18;100.00;99494.75;5013568;28;20036;-79
2024/01/18 03:15:13;;;;;;;26.65;19.35;;;;;;;-2.28;100.00;99490.88;5013411;28;20072;-76
2024/01/18 03:17:38;;;;;;;24.00;19.48;;;;;;;-2.34;100.00;99483.50;5013616;28;20030;-79
2024/01/18 03:20:07;;;;;;;20.40;16.90;;;;;;;-2.25;100.00;99497.56;5013283;28;20041;-78
2024/01/18 03:22:38;;;;;;;25.42;19.52;;;;;;;-2.29;100.00;99509.47;5013239;28;20084;-79
2024/01/18 03:25:03;;;;;;;26.38;19.58;;;;;;;-2.42;100.00;99498.09;4995271;28;20048;-78
2024/01/18 03:27:29;;;;;;;25.08;20.08;;;;;;;-2.61;100.00;99483.50;5013483;28;20521;-78
2024/01/18 03:29:55;;;;;;;25.70;19.58;;;;;;;-2.50;100.00;99520.25;5012937;28;20469;-76
2024/01/18 03:32:20;;;;;;;25.15;18.45;;;;;;;-2.73;100.00;99499.03;5013314;28;20037;-76
2024/01/18 03:34:46;;;;;;;23.75;18.65;;;;;;;-2.68;100.00;99519.09;5013119;28;20021;-76
2024/01/18 03:37:11;;;;;;;24.92;19.25;;;;;;;-2.80;100.00;99519.47;5013311;28;20068;-76
2024/01/18 03:39:37;;;;;;;27.17;20.17;;;;;;;-2.83;100.00;99519.56;5013183;28;20040;-77
2024/01/18 03:42:02;;;;;;;27.40;20.65;;;;;;;-2.89;100.00;99523.06;5012841;28;20489;-76
2024/01/18 03:44:28;;;;;;;27.70;20.90;;;;;;;-2.94;100.00;99522.41;5012808;28;20025;-76
2024/01/18 03:46:53;;;;;;;25.08;21.63;;;;;;;-2.99;100.00;99527.56;5013050;28;20153;-77
2024/01/18 03:49:20;;;;;;;28.17;21.80;;;;;;;-2.98;100.00;99521.63;5012903;28;20076;-76
2024/01/18 03:51:46;;;;;;;29.95;21.55;;;;;;;-3.02;100.00;99519.25;5012587;28;20029;-76
2024/01/18 03:54:11;;;;;;;27.55;21.38;;;;;;;-2.90;100.00;99536.56;5012736;28;20030;-76
2024/01/18 03:56:36;;;;;;;30.05;21.08;;;;;;;-2.90;100.00;99537.41;5012821;28;20037;-76
2024/01/18 03:59:02;;;;;;;26.05;20.20;;;;;;;-2.87;100.00;99526.38;5012911;28;20022;-76
2024/01/18 04:01:33;;;;;;;26.48;20.45;;;;;;;-2.83;100.00;99535.53;5012870;28;20081;-76
2024/01/18 04:04:01;;;;;;;;;;;;;;;-2.85;100.00;99538.97;4995541;28;20045;-76
2024/01/18 04:06:27;;;;;;;28.85;22.02;;;;;;;-2.92;100.00;99525.69;5012466;28;20176;-76
2024/01/18 04:08:52;;;;;;;27.65;20.20;;;;;;;-3.11;100.00;99506.91;5012752;28;20149;-78
2024/01/18 04:11:17;;;;;;;26.95;21.05;;;;;;;-2.91;100.00;99540.81;5012648;28;20104;-80
2024/01/18 04:13:43;;;;;;;26.35;20.92;;;;;;;-3.00;100.00;99536.00;5012783;28;20076;-80
2024/01/18 04:16:08;;;;;;;25.92;19.42;;;;;;;-3.06;100.00;99543.75;5012739;28;20026;-79
2024/01/18 04:18:34;;;;;;;25.85;19.95;;;;;;;-3.17;100.00;99540.69;5012538;28;20037;-80
2024/01/18 04:20:59;;;;;;;27.67;19.90;;;;;;;-3.31;100.00;99533.53;5012359;28;20026;-80
2024/01/18 04:23:25;;;;;;;25.20;20.17;;;;;;;-3.54;100.00;99503.00;5012511;28;20117;-81
2024/01/18 04:25:51;;;;;;;29.90;20.42;;;;;;;-3.33;100.00;99549.59;5012713;28;20105;-79
2024/01/18 04:28:19;;;;;;;27.38;20.08;;;;;;;-3.88;100.00;99475.34;5012766;28;20022;-78
2024/01/18 04:30:44;;;;;;;26.15;20.40;;;;;;;-3.46;100.00;99551.59;5012357;28;20029;-79
2024/01/18 04:33:09;;;;;;;27.48;19.98;;;;;;;-3.51;100.00;99550.88;5012519;28;20536;-76
2024/01/18 04:35:35;;;;;;;30.02;20.70;;;;;;;-3.51;100.00;99564.34;5012597;28;20037;-77
2024/01/18 04:38:00;;;;;;;26.35;20.10;;;;;;;-3.57;100.00;99564.47;5016235;28;20033;-76
2024/01/18 04:40:25;;;;;;;30.55;20.00;;;;;;;-3.60;100.00;99584.75;5016167;28;20109;-79
2024/01/18 04:42:51;;;;;;;26.05;19.45;;;;;;;-3.69;100.00;99579.94;5016542;28;20030;-76
2024/01/18 04:45:16;;;;;;;23.17;18.98;;;;;;;-3.77;100.00;99586.84;5016353;28;20045;-78
2024/01/18 04:47:42;;;;;;;26.85;19.52;;;;;;;-3.82;100.00;99576.06;5016356;28;20362;-77
2024/01/18 04:50:10;;;;;;;26.58;19.50;;;;;;;-3.81;100.00;99586.13;5016054;28;20499;-77
2024/01/18 04:52:36;;;;;;;26.33;19.02;;;;;;;-3.85;100.00;99584.50;5015665;28;20029;-76
2024/01/18 04:55:04;;;;;;;26.67;20.15;;;;;;;-3.83;100.00;99584.50;5016116;28;20054;-78
2024/01/18 04:57:31;;;;;;;33.03;20.27;;;;;;;-3.87;100.00;99588.78;5016225;28;20107;-77
2024/01/18 04:59:57;;;;;;;24.67;19.60;;;;;;;-4.05;100.00;99564.00;5016234;28;20092;-78
2024/01/18 05:02:22;;;;;;;27.33;20.02;;;;;;;-3.89;100.00;99599.78;5016443;28;20025;-77
2024/01/18 05:04:48;;;;;;;26.15;18.65;;;;;;;-4.06;100.00;99593.41;5016036;28;20417;-78
2024/01/18 05:07:13;;;;;;;24.83;18.70;;;;;;;-4.03;100.00;99612.72;5015567;28;20032;-77
2024/01/18 05:09:38;;;;;;;25.13;18.52;;;;;;;-4.06;100.00;99611.06;5015556;28;20420;-77
2024/01/18 05:12:04;;;;;;;22.88;16.83;;;;;;;-4.12;100.00;99612.91;5015920;28;20040;-77
2024/01/18 05:14:29;;;;;;;25.35;18.67;;;;;;;-4.29;100.00;99589.78;5015574;28;20037;-80
2024/01/18 05:17:03;;;;;;;27.13;18.92;;;;;;;-4.37;100.00;99595.81;5015640;28;20026;-77
2024/01/18 05:19:29;;;;;;;24.85;17.50;;;;;;;-4.23;100.00;99617.34;5014596;28;20037;-77
2024/01/18 05:21:54;;;;;;;23.27;17.73;;;;;;;-4.29;100.00;99613.28;5015345;28;20483;-77
2024/01/18 05:24:20;;;;;;;23.67;16.55;;;;;;;-4.32;100.00;99618.41;5015064;28;20493;-77
2024/01/18 05:26:45;;;;;;;23.25;17.75;;;;;;;-4.35;100.00;99615.94;5015503;28;20382;-80
2024/01/18 05:29:10;;;;;;;24.70;17.35;;;;;;;-4.39;100.00;99622.75;5015339;28;20029;-77
2024/01/18 05:31:36;;;;;;;26.60;18.80;;;;;;;-4.56;100.00;99597.06;5015317;28;20033;-77
2024/01/18 05:34:01;;;;;;;23.42;18.23;;;;;;;-4.58;100.00;99606.34;5015444;28;20030;-77
2024/01/18 05:36:26;;;;;;;26.23;19.38;;;;;;;-4.45;100.00;99627.06;5015286;28;20111;-77
2024/01/18 05:38:52;;;;;;;25.10;19.17;;;;;;;-4.44;100.00;99623.69;5015221;28;20022;-78
2024/01/18 05:41:17;;;;;;;27.83;18.23;;;;;;;-4.59;100.00;99613.94;5012934;28;20070;-78
2024/01/18 05:43:42;;;;;;;24.80;18.83;;;;;;;-4.52;100.00;99640.66;5015541;28;20088;-78
2024/01/18 05:46:08;;;;;;;29.42;18.65;;;;;;;-4.53;100.00;99644.03;5015115;28;20501;-77
2024/01/18 05:48:33;;;;;;;25.73;19.42;;;;;;;-4.60;100.00;99628.22;5014850;28;20110;-80
2024/01/18 05:50:59;;;;;;;26.58;19.17;;;;;;;-4.55;100.00;99650.78;5014845;28;20030;-78
2024/01/18 05:53:24;;;;;;;28.05;18.75;;;;;;;-4.57;100.00;99653.34;5014987;28;20064;-78
2024/01/18 05:55:49;;;;;;;26.27;18.13;;;;;;;-4.53;100.00;99652.41;5014808;28;20446;-77
2024/01/18 05:58:14;;;;;;;22.55;17.20;;;;;;;-4.56;100.00;99655.00;5014848;28;20026;-78
2024/01/18 06:00:41;;;;;;;26.25;18.73;;;;;;;-4.74;100.00;99655.38;5014776;28;20026;-78
2024/01/18 06:03:08;;;;;;;25.85;17.20;;;;;;;-4.71;100.00;99660.38;5014780;28;20030;-77
2024/01/18 06:05:33;;;;;;;21.40;16.90;;;;;;;-4.66;100.00;99678.72;5013139;28;20347;-77
2024/01/18 06:07:59;;;;;;;24.08;16.85;;;;;;;-4.71;100.00;99670.44;5014588;28;20032;-77
2024/01/18 06:10:24;;;;;;;21.27;16.90;;;;;;;-4.63;100.00;99669.41;5014535;28;20120;-78
2024/01/18 06:12:49;;;;;;;21.30;15.55;;;;;;;-4.56;100.00;99674.34;5014821;28;20026;-78
2024/01/18 06:15:15;;;;;;;21.88;15.50;;;;;;;-4.51;100.00;99673.38;5014724;28;20018;-77
2024/01/18 06:17:40;;;;;;;20.98;14.95;;;;;;;-4.60;100.00;99660.97;5014402;28;20500;-78
2024/01/18 06:20:06;;;;;;;20.25;14.90;;;;;;;-4.57;100.00;99672.66;5014527;28;20481;-80
2024/01/18 06:22:31;;;;;;;19.63;14.38;;;;;;;-4.48;100.00;99690.97;5014236;28;20028;-77
2024/01/18 06:24:56;;;;;;;21.88;13.77;;;;;;;-4.48;100.00;99698.50;5014459;28;20108;-80
2024/01/18 06:27:22;;;;;;;20.77;12.95;;;;;;;-4.51;100.00;99701.09;5014246;28;20022;-78
2024/01/18 06:29:47;;;;;;;26.27;14.20;;;;;;;-4.54;100.00;99703.66;4996734;28;20037;-79
2024/01/18 06:32:13;;;;;;;19.95;14.38;;;;;;;-4.55;100.00;99709.56;5014311;28;20080;-79
2024/01/18 06:34:39;;;;;;;19.95;13.20;;;;;;;-4.73;100.00;99704.88;5014719;28;20030;-78
2024/01/18 06:37:04;;;;;;;19.17;13.60;;;;;;;-4.92;100.00;99690.13;5014390;28;20029;-78
2024/01/18 06:39:29;;;;;;;19.83;13.20;;;;;;;-4.69;100.00;99737.53;5014344;28;20481;-80
2024/01/18 06:41:55;;;;;;;17.50;13.75;;;;;;;-4.84;100.00;99715.16;5013841;28;20046;-78
2024/01/18 06:44:20;;;;;;;19.73;14.40;;;;;;;-4.82;100.00;99725.19;5014408;28;20022;-75
2024/01/18 06:46:45;;;;;;;20.42;14.45;;;;;;;-4.91;100.00;99727.03;5014298;28;20053;-77
2024/01/18 06:49:11;;;;;;;19.35;13.70;;;;;;;-5.00;100.00;99716.28;5014025;28;20046;-79
2024/01/18 06:51:37;;;;;;;20.77;13.63;;;;;;;-4.87;100.00;99749.63;5013913;28;20040;-77
2024/01/18 06:54:03;;;;;;;19.17;13.32;;;;;;;-4.96;100.00;99738.84;5013774;28;20057;-78
2024/01/18 06:56:28;;;;;;;20.13;13.82;;;;;;;-4.92;100.00;99749.69;5013962;28;20029;-77
2024/01/18 06:58:53;;;;;;;19.08;13.35;;;;;;;-5.10;100.00;99718.13;5012870;28;20104;-77
2024/01/18 07:01:19;;;;;;;20.50;13.73;;;;;;;-4.96;100.00;99750.63;5013796;28;20030;-77
2024/01/18 07:03:44;;;;;;;20.17;13.52;;;;;;;-5.16;100.00;99727.47;5013823;28;20026;-77
2024/01/18 07:06:09;;;;;;;21.13;13.93;;;;;;;-5.02;100.00;99758.25;5013918;28;20113;-77
2024/01/18 07:08:37;;;;;;;20.83;15.07;;;;;;;-5.10;100.00;99757.59;5013688;28;20026;-78
2024/01/18 07:11:04;;;;;;;24.85;15.68;;;;;;;-5.07;100.00;99765.06;5013416;28;20026;-77
2024/01/18 07:13:29;;;;;;;23.15;16.05;;;;;;;-5.06;100.00;99751.63;5013374;28;20026;-77
2024/01/18 07:15:54;;;;;;;21.40;15.88;;;;;;;-5.17;100.00;99751.81;5013836;28;20025;-77
2024/01/18 07:18:20;;;;;;;21.55;13.93;;;;;;;-5.15;100.00;99766.88;5013751;28;20532;-77
2024/01/18 07:20:45;;;;;;;21.23;13.20;;;;;;;-5.15;100.00;99776.94;5013532;28;20018;-80
2024/01/18 07:23:10;;;;;;;20.85;14.40;;;;;;;-5.21;100.00;99781.25;5013117;28;20026;-81
2024/01/18 07:25:36;;;;;;;21.83;14.93;;;;;;;-5.28;100.00;99776.31;5013431;28;20014;-82
2024/01/18 07:28:01;;;;;;;22.23;16.00;;;;;;;-5.40;100.00;99769.78;5013022;28;20014;-81
2024/01/18 07:30:26;;;;;;;24.80;17.08;;;;;;;-5.18;100.00;99797.97;5013536;28;20165;-80
2024/01/18 07:32:52;;;;;;;26.30;18.92;;;;;;;-5.18;100.00;99794.63;5013484;28;20061;-82
2024/01/18 07:35:17;;;;;;;24.42;18.63;;;;;;;-5.19;100.00;99796.31;5013218;28;20100;-79
2024/01/18 07:37:42;;;;;;;28.42;18.83;;;;;;;-5.20;100.00;99799.69;4995520;28;20030;-77
2024/01/18 07:40:08;;;;;;;28.50;20.52;;;;;;;-5.34;100.00;99786.47;5012325;28;20025;-75
2024/01/18 07:42:33;;;;;;;28.38;20.58;;;;;;;-5.15;100.00;99810.50;5013308;28;20536;-74
2024/01/18 07:44:59;;;;;;;27.52;18.95;;;;;;;-5.13;100.00;99800.41;5013014;28;20105;-74
2024/01/18 07:50:32;;;;;;;26.66;18.12;;;;;;;-6.12;100.00;99635.09;5227129;23;20057;-77
2024/01/18 07:56:27;;;;;;;27.30;18.77;;;;;;;-6.28;100.00;99616.09;5032012;28;20109;-77
2024/01/18 07:59:01;;;;;;;23.70;17.05;;;;;;;-5.40;100.00;99763.94;5032600;28;20029;-77
2024/01/18 08:01:26;;;;;;;24.33;16.67;;;;;;;-5.88;100.00;99686.69;5032506;28;20045;-79
2024/01/18 08:03:51;;;;;;;21.60;15.43;;;;;;;-4.86;100.00;99849.50;5032667;28;20029;-79
2024/01/18 08:06:17;;;;;;;21.92;16.85;;;;;;;-4.92;100.00;99843.72;5031425;28;20116;-77
2024/01/18 08:08:42;;;;;;;25.27;16.70;;;;;;;-4.82;100.00;99856.97;5032810;28;20052;-78
2024/01/18 08:11:12;;;;;;;23.90;15.80;;;;;;;-4.78;100.00;99857.75;5032111;28;20033;-78
2024/01/18 08:13:38;;;;;;;21.25;16.52;;;;;;;-4.79;100.00;99853.56;5032743;28;20053;-76
2024/01/18 08:16:03;;;;;;;22.77;16.13;;;;;;;-4.76;100.00;99858.56;5032649;28;20519;-78
2024/01/18 08:18:28;;;;;;;21.00;14.90;;;;;;;-4.68;100.00;99869.34;5032512;28;20022;-78
2024/01/18 08:20:54;;;;;;;20.65;15.10;;;;;;;-4.63;100.00;99872.59;5032830;28;20116;-80
2024/01/18 08:23:19;;;;;;;20.80;15.57;;;;;;;-4.62;100.00;99872.59;5032385;28;20024;-79
2024/01/18 08:25:45;;;;;;;21.52;16.58;;;;;;;-4.63;100.00;99865.03;5030525;28;20175;-81
2024/01/18 08:28:13;;;;;;;21.52;16.25;;;;;;;-4.88;100.00;99823.50;5032615;28;20017;-81
2024/01/18 08:30:39;;;;;;;25.10;16.98;;;;;;;-4.74;100.00;99837.53;5032464;28;20029;-81
2024/01/18 08:33:05;;;;;;;27.40;18.23;;;;;;;-4.48;100.00;99884.97;5032630;28;20033;-80
2024/01/18 08:35:30;;;;;;;23.00;17.73;;;;;;;-4.45;100.00;99887.41;5029671;23;20108;-80
2024/01/18 08:37:55;;;;;;;23.90;19.92;;;;;;;-4.37;100.00;99897.38;5012746;28;20031;-80
2024/01/18 08:40:20;;;;;;;27.23;20.75;;;;;;;-4.47;100.00;99868.16;5012378;28;20458;-82
2024/01/18 08:42:46;;;;;;;27.15;20.00;;;;;;;-4.18;100.00;99905.44;5012593;28;20029;-78
2024/01/18 08:45:12;;;;;;;25.88;20.05;;;;;;;-4.22;100.00;99887.03;5024281;28;20036;-78
2024/01/18 08:47:38;;;;;;;25.60;20.05;;;;;;;-4.09;100.00;99903.59;5032880;28;20116;-79
2024/01/18 08:50:05;;;;;;;24.85;19.27;;;;;;;-3.97;100.00;99917.66;5031763;28;20029;-78
2024/01/18 08:52:30;;;;;;;25.25;19.02;;;;;;;-3.93;100.00;99916.75;5031935;28;20116;-77
2024/01/18 08:54:55;;;;;;;23.02;19.00;;;;;;;-4.00;100.00;99897.56;5031735;28;20117;-77
2024/01/18 08:57:22;;;;;;;22.42;17.33;;;;;;;-3.94;100.00;99902.47;5014027;28;20116;-78
2024/01/18 08:59:47;;;;;;;21.67;16.83;;;;;;;-3.73;100.00;99926.47;5027282;28;20233;-79
2024/01/18 09:02:13;;;;;;;21.30;16.08;;;;;;;-3.68;100.00;99929.72;4994041;28;20063;-81
2024/01/18 09:04:39;;;;;;;22.55;16.73;;;;;;;-3.62;100.00;99933.84;5011742;28;20450;-78
2024/01/18 09:07:04;;;;;;;23.13;15.85;;;;;;;-3.73;100.00;99902.94;5011956;28;20675;-81
2024/01/18 09:09:29;;;;;;;21.63;17.00;;;;;;;-3.58;100.00;99930.38;5011988;28;20101;-81
2024/01/18 09:11:55;;;;;;;21.42;16.10;;;;;;;-3.80;100.00;99894.66;5012111;28;20477;-78
2024/01/18 09:14:20;;;;;;;21.50;17.48;;;;;;;-3.48;100.00;99950.34;5025705;23;20049;-78
2024/01/18 09:16:45;;;;;;;22.92;16.48;;;;;;;-3.38;100.00;99952.69;5032010;28;20037;-79
2024/01/18 09:19:11;;;;;;;22.30;15.52;;;;;;;-3.55;100.00;99925.25;5031757;28;20039;-81
2024/01/18 09:21:44;;;;;;;21.48;15.02;;;;;;;-3.30;100.00;99955.91;5032437;28;20065;-79
2024/01/18 09:24:10;;;;;;;18.77;14.02;;;;;;;-3.40;100.00;99941.81;5035140;28;20492;-79
2024/01/18 09:26:35;;;;;;;17.88;13.88;;;;;;;-3.26;100.00;99960.84;5035343;28;20057;-79
2024/01/18 09:29:02;;;;;;;19.05;12.60;;;;;;;-3.38;100.00;99924.94;5035496;28;20022;-79
2024/01/18 09:31:27;;;;;;;21.42;13.85;;;;;;;-3.02;100.00;99991.53;5035385;28;20052;-78
2024/01/18 09:33:52;;;;;;;16.40;11.57;;;;;;;-2.95;100.00;99987.97;5034915;28;20037;-78
2024/01/18 09:36:21;;;;;;;14.93;12.40;;;;;;;-4.09;100.00;99789.31;5195621;23;20053;-79
2024/01/18 09:38:49;;;;;;;16.77;12.13;;;;;;;-3.75;100.00;99850.81;5035176;28;20426;-77
2024/01/18 09:41:18;;;;;;;16.38;11.38;;;;;;;-2.77;100.00;100012.84;5034866;28;20029;-78
2024/01/18 09:43:44;;;;;;;15.02;10.95;;;;;;;-2.74;100.00;100009.44;5035105;28;20076;-78
2024/01/18 09:46:11;;;;;;;16.67;10.98;;;;;;;-2.69;100.00;100017.75;5035110;28;20033;-77
2024/01/18 09:48:49;;;;;;;15.60;11.32;;;;;;;-2.64;100.00;100026.91;5034429;28;20025;-78
2024/01/18 09:51:15;;;;;;;16.27;11.18;;;;;;;-2.79;100.00;99999.44;5035083;28;20116;-77
2024/01/18 09:53:47;;;;;;;14.18;9.95;;;;;;;-2.58;100.00;100036.03;5313463;23;20050;-77
2024/01/18 09:56:20;;;;;;;16.35;10.50;;;;;;;-2.55;100.00;100030.09;5034703;28;20029;-76
2024/01/18 09:58:45;;;;;;;14.02;10.18;;;;;;;-2.44;100.00;100051.75;5034821;28;20416;-78
2024/01/18 10:01:18;;;;;;;14.57;10.27;;;;;;;-2.38;100.00;100058.34;5034794;28;20091;-78
2024/01/18 10:03:43;;;;;;;15.68;10.52;;;;;;;-2.34;100.00;100063.31;5034485;28;20026;-77
2024/01/18 10:06:09;;;;;;;17.30;10.27;;;;;;;-2.31;100.00;100070.81;5034852;28;20040;-79
2024/01/18 10:08:34;;;;;;;18.27;10.35;;;;;;;-2.25;100.00;100062.28;5034580;28;20025;-78
2024/01/18 10:11:00;;;;;;;13.73;9.60;;;;;;;-2.23;100.00;100057.19;5034518;28;20030;-80
2024/01/18 10:13:26;;;;;;;13.95;9.18;;;;;;;-2.14;100.00;100072.16;5034578;28;20499;-78
2024/01/18 10:15:52;;;;;;;13.15;8.98;;;;;;;-2.09;100.00;100082.97;5034435;28;20377;-79
2024/01/18 10:18:18;;;;;;;12.43;8.77;;;;;;;-2.04;100.00;100096.34;5032942;28;20029;-79
2024/01/18 10:20:45;;;;;;;12.30;8.25;;;;;;;-1.98;100.00;100091.13;5034346;28;20061;-80
2024/01/18 10:23:10;;;;;;;13.68;8.45;;;;;;;-1.98;100.00;100080.19;5034230;28;20026;-78
2024/01/18 10:25:36;;;;;;;13.18;8.52;;;;;;;-1.88;100.00;100086.69;5034279;28;20029;-81
2024/01/18 10:28:01;;;;;;;14.77;8.45;;;;;;;-1.81;100.00;100094.09;5034538;28;20021;-82
2024/01/18 10:30:27;;;;;;;13.43;7.57;;;;;;;-2.10;100.00;100051.78;5034106;28;20420;-83
2024/01/18 10:32:52;;;;;;;15.07;7.40;;;;;;;-2.03;100.00;100048.25;5034079;28;20088;-84
2024/01/18 10:35:24;;;;;;;14.95;8.00;;;;;;;-1.63;100.00;100107.19;5034175;28;20021;-80
2024/01/18 10:38:09;;;;;;;11.90;7.53;;;;;;;-1.75;100.00;100091.44;5034213;28;20022;-79
2024/01/18 10:40:36;;;;;;;10.93;6.80;;;;;;;-1.53;100.00;100116.22;5033996;28;20025;-77
2024/01/18 10:43:03;;;;;;;11.75;7.22;;;;;;;-1.59;100.00;100107.06;5033983;28;20018;-76
2024/01/18 10:45:30;;;;;;;10.35;7.45;;;;;;;-1.58;100.00;100091.00;5033975;28;20067;-75
2024/01/18 10:47:57;;;;;;;9.90;6.30;;;;;;;-1.45;100.00;100097.44;5034114;28;20048;-81
2024/01/18 10:50:22;;;;;;;11.02;6.15;;;;;;;-1.32;100.00;100115.66;5033865;28;20056;-83
2024/01/18 10:52:48;;;;;;;11.68;6.10;;;;;;;-1.25;100.00;100119.72;5033923;28;20477;-82
2024/01/18 10:55:14;;;;;;;11.45;5.60;;;;;;;-1.31;100.00;100113.97;5032218;28;20037;-81
2024/01/18 10:57:40;;;;;;;9.60;5.35;;;;;;;-1.18;100.00;100126.28;5033642;28;20025;-80
2024/01/18 11:00:06;;;;;;;8.63;6.05;;;;;;;-1.16;100.00;100131.31;5033788;28;20029;-77
2024/01/18 11:02:40;;;;;;;7.93;5.13;;;;;;;-1.09;100.00;100134.50;5033701;28;20385;-79
2024/01/18 11:05:09;;;;;;;9.15;4.80;;;;;;;-1.01;100.00;100140.19;5032485;28;20108;-81
2024/01/18 11:07:37;;;;;;;9.38;4.90;;;;;;;-1.22;100.00;100101.06;5033685;28;20025;-77
2024/01/18 11:10:12;;;;;;;9.68;5.18;;;;;;;-0.92;100.00;100145.03;5033711;28;20022;-81
2024/01/18 11:12:40;;;;;;;10.13;4.80;;;;;;;-1.08;100.00;100126.88;5033181;28;20023;-81
2024/01/18 11:15:07;;;;;;;12.43;4.97;;;;;;;-0.89;100.00;100157.59;5033472;28;20083;-79